Time;durP1;ratioP1;P1;durP2;ratioP2;P2;SDS_P1;SDS_P2;PMS_P1;PMS_P2;Temp;Humidity;BMP_temperature;BMP_pressure;BME280_temperature;BME280_humidity;BME280_pressure;Samples;Min_cycle;Max_cycle;Signal;HPM_P1;HPM_P2
2021/12/31 00:02:14;;;;;;;4.53;2.75;;;17.70;63.70;16.70;101212.00;;;;5043560;28;20045;-68
2021/12/31 00:05:01;;;;;;;4.55;2.80;;;17.70;63.60;16.70;101206.00;;;;5043679;28;20478;-68
2021/12/31 00:07:47;;;;;;;4.95;2.70;;;17.70;63.40;16.70;101206.00;;;;5045526;28;20083;-68
2021/12/31 00:10:33;;;;;;;5.40;3.13;;;17.70;63.30;16.70;101205.00;;;;5044014;28;20039;-68
2021/12/31 00:13:19;;;;;;;5.25;2.83;;;17.70;63.50;16.60;101202.00;;;;5032559;28;20037;-68
2021/12/31 00:16:05;;;;;;;3.15;2.65;;;17.70;63.30;16.70;101215.00;;;;5043095;28;20047;-68
2021/12/31 00:18:53;;;;;;;4.15;2.90;;;17.70;63.30;16.70;101215.00;;;;5044379;28;20041;-68
2021/12/31 00:21:41;;;;;;;3.95;2.40;;;17.70;63.30;16.60;101212.00;;;;5043092;28;20041;-68
2021/12/31 00:24:28;;;;;;;3.55;3.13;;;17.70;63.20;16.70;101211.00;;;;5033991;28;20063;-68
2021/12/31 00:27:14;;;;;;;3.78;3.00;;;17.70;63.20;16.70;101201.00;;;;5035067;28;20041;-68
2021/12/31 00:30:00;;;;;;;5.88;3.00;;;17.70;63.20;16.70;101204.00;;;;5046444;28;20209;-68
2021/12/31 00:32:47;;;;;;;3.20;2.83;;;17.70;63.90;16.70;101201.00;;;;5046372;28;20068;-68
2021/12/31 00:35:33;;;;;;;4.70;2.83;;;17.70;63.20;16.70;101205.00;;;;5047403;28;20037;-68
2021/12/31 00:38:20;;;;;;;3.75;3.22;;;17.70;63.20;16.70;101202.00;;;;5045739;28;20041;-68
2021/12/31 00:41:06;;;;;;;3.20;2.90;;;17.70;63.10;16.70;101204.00;;;;5028537;28;20436;-68
2021/12/31 00:43:52;;;;;;;3.15;2.80;;;17.70;63.30;16.70;101206.00;;;;5045548;28;20072;-68
2021/12/31 00:46:38;;;;;;;4.47;3.13;;;17.70;63.20;16.70;101204.00;;;;5043632;28;20650;-68
2021/12/31 00:49:24;;;;;;;4.50;3.10;;;17.70;63.10;16.70;101205.00;;;;5044959;28;20056;-68
2021/12/31 00:52:10;;;;;;;3.58;2.65;;;17.70;63.20;16.70;101218.00;;;;5044540;28;20049;-68
2021/12/31 00:54:56;;;;;;;3.63;3.08;;;17.70;63.00;16.70;101210.00;;;;5011997;28;20553;-68
2021/12/31 00:57:43;;;;;;;4.07;3.00;;;17.70;63.10;16.70;101217.00;;;;5028647;28;20098;-68
2021/12/31 01:00:29;;;;;;;4.95;3.30;;;17.70;63.20;16.70;101221.00;;;;5017986;28;20090;-68
2021/12/31 01:03:17;;;;;;;2.85;2.65;;;17.70;63.10;16.70;101222.00;;;;5020272;28;20047;-68
2021/12/31 01:06:03;;;;;;;3.97;2.78;;;17.70;63.00;16.70;101226.00;;;;5044142;28;20045;-68
2021/12/31 01:08:49;;;;;;;5.82;3.30;;;17.70;63.20;16.60;101236.00;;;;5042987;28;20036;-69
2021/12/31 01:11:35;;;;;;;3.03;2.72;;;17.70;63.30;16.70;101247.00;;;;5047840;28;20044;-68
2021/12/31 01:17:15;;;;;;;4.85;2.85;;;17.70;63.20;16.70;101236.00;;;;5048694;28;20033;-68
2021/12/31 01:20:03;;;;;;;3.83;2.33;;;17.70;63.20;16.70;101247.00;;;;5040225;28;20130;-68
2021/12/31 01:22:49;;;;;;;3.03;2.40;;;17.70;63.20;16.70;101239.00;;;;5030430;28;20044;-68
2021/12/31 01:25:36;;;;;;;3.58;2.33;;;17.70;63.20;16.70;101232.00;;;;5051187;28;20045;-68
2021/12/31 01:28:22;;;;;;;3.08;2.63;;;17.70;63.20;16.70;101234.00;;;;5019420;28;20048;-68
2021/12/31 01:31:08;;;;;;;4.40;2.63;;;17.70;63.40;16.70;101240.00;;;;5041476;28;20060;-68
2021/12/31 01:33:55;;;;;;;2.95;2.47;;;17.70;63.50;16.70;101231.00;;;;5036958;28;20483;-68
2021/12/31 01:36:41;;;;;;;4.70;2.45;;;17.70;63.30;16.70;101231.00;;;;5046487;28;20033;-68
2021/12/31 01:39:27;;;;;;;3.15;2.25;;;17.70;63.30;16.70;101226.00;;;;5047478;28;20052;-68
2021/12/31 01:42:14;;;;;;;6.60;2.63;;;17.70;63.20;16.70;101232.00;;;;5028532;28;20068;-68
2021/12/31 01:45:17;;;;;;;4.45;2.05;;;17.70;63.40;16.70;101230.00;;;;5049959;28;20047;-68
2021/12/31 01:48:09;;;;;;;4.45;2.45;;;17.70;63.30;16.70;101235.00;;;;5013689;28;20099;-68
2021/12/31 01:50:55;;;;;;;5.60;2.40;;;17.70;63.20;16.60;101233.00;;;;5050472;28;20052;-68
2021/12/31 01:53:41;;;;;;;2.42;2.10;;;17.70;63.10;16.70;101232.00;;;;5038203;28;20116;-68
2021/12/31 01:56:28;;;;;;;5.63;2.72;;;17.70;63.30;16.60;101229.00;;;;5051154;28;20072;-68
2021/12/31 01:59:15;;;;;;;3.47;2.15;;;17.70;63.30;16.70;101229.00;;;;5034067;28;20052;-68
2021/12/31 02:02:02;;;;;;;3.58;2.22;;;17.70;63.40;16.70;101232.00;;;;5056358;28;20041;-68
2021/12/31 02:04:48;;;;;;;4.05;2.20;;;17.70;63.30;16.70;101229.00;;;;5036283;28;20757;-68
2021/12/31 02:07:34;;;;;;;6.03;2.63;;;17.70;63.30;16.70;101232.00;;;;5023611;28;20136;-68
2021/12/31 02:10:21;;;;;;;3.40;1.88;;;17.70;63.40;16.70;101227.00;;;;5026579;28;20351;-68
2021/12/31 02:13:08;;;;;;;4.18;2.00;;;17.70;63.30;16.70;101227.00;;;;5029310;28;20037;-68
2021/12/31 02:15:55;;;;;;;3.88;1.70;;;17.70;63.30;16.70;101225.00;;;;5050348;28;20538;-68
2021/12/31 02:18:43;;;;;;;4.90;2.20;;;17.70;63.30;16.70;101241.00;;;;5049371;28;20036;-68
2021/12/31 02:21:29;;;;;;;4.60;1.70;;;17.70;63.30;16.70;101228.00;;;;5048028;28;20186;-68
2021/12/31 02:24:18;;;;;;;3.30;2.05;;;17.70;63.10;16.60;101234.00;;;;5045198;28;20152;-68
2021/12/31 02:27:04;;;;;;;3.15;2.10;;;17.70;63.10;16.60;101223.00;;;;5046503;28;20044;-68
2021/12/31 02:29:51;;;;;;;2.58;1.80;;;17.70;63.10;16.70;101237.00;;;;5047199;28;20501;-68
2021/12/31 02:32:38;;;;;;;2.95;2.00;;;17.70;63.20;16.70;101227.00;;;;5014110;28;20040;-68
2021/12/31 02:35:24;;;;;;;5.57;2.00;;;17.70;63.10;16.70;101234.00;;;;5026540;28;20478;-68
2021/12/31 02:38:10;;;;;;;4.70;1.90;;;17.70;63.20;16.70;101231.00;;;;5033315;28;20041;-68
2021/12/31 02:40:57;;;;;;;3.38;1.77;;;17.70;63.20;16.70;101229.00;;;;5044654;28;20516;-68
2021/12/31 02:43:43;;;;;;;6.07;2.00;;;17.70;63.10;16.70;101231.00;;;;5045958;28;20118;-68
2021/12/31 02:46:29;;;;;;;3.38;1.60;;;17.70;63.10;16.70;101224.00;;;;5034434;28;20057;-68
2021/12/31 02:49:19;;;;;;;3.67;1.60;;;17.70;63.00;16.70;101229.00;;;;5033808;28;20080;-68
2021/12/31 02:52:11;;;;;;;2.97;1.55;;;17.70;63.00;16.70;101219.00;;;;5045346;28;20040;-69
2021/12/31 02:54:59;;;;;;;2.22;1.45;;;17.70;62.90;16.70;101215.00;;;;5046494;28;20057;-68
2021/12/31 02:57:46;;;;;;;4.75;1.42;;;17.70;63.60;16.70;101205.00;;;;5035284;28;20045;-68
2021/12/31 03:00:35;;;;;;;2.42;1.45;;;17.70;62.80;16.60;101218.00;;;;5027291;28;20044;-68
2021/12/31 03:03:22;;;;;;;2.72;1.63;;;17.70;62.80;16.60;101218.00;;;;5015834;28;20576;-68
2021/12/31 03:06:09;;;;;;;5.13;1.30;;;17.70;62.80;16.60;101216.00;;;;5032409;28;20064;-68
2021/12/31 03:08:55;;;;;;;1.88;1.13;;;17.70;62.90;16.70;101222.00;;;;5011897;28;20045;-68
2021/12/31 03:11:41;;;;;;;1.58;1.20;;;17.70;62.80;16.70;101217.00;;;;5020181;28;20071;-68
2021/12/31 03:14:28;;;;;;;2.90;1.42;;;17.70;62.80;16.70;101216.00;;;;5034394;28;20029;-68
2021/12/31 03:17:15;;;;;;;4.10;1.50;;;17.70;62.80;16.70;101216.00;;;;5015469;28;20037;-68
2021/12/31 03:20:12;;;;;;;2.17;1.00;;;17.70;62.80;16.60;101219.00;;;;5021153;28;20271;-68
2021/12/31 03:22:58;;;;;;;1.85;1.17;;;17.70;62.70;16.60;101219.00;;;;5040262;28;20049;-68
2021/12/31 03:25:44;;;;;;;3.72;1.38;;;17.70;62.80;16.70;101205.00;;;;5048610;28;20047;-68
2021/12/31 03:28:30;;;;;;;2.90;1.35;;;17.70;62.80;16.70;101215.00;;;;5046026;28;20045;-68
2021/12/31 03:31:16;;;;;;;3.17;1.42;;;17.70;62.80;16.70;101216.00;;;;5025279;28;20086;-68
2021/12/31 03:34:03;;;;;;;1.77;1.30;;;17.70;62.80;16.70;101208.00;;;;5033115;28;20037;-68
2021/12/31 03:36:49;;;;;;;4.80;1.42;;;17.70;62.80;16.70;101211.00;;;;5016155;28;20040;-68
2021/12/31 03:39:35;;;;;;;2.28;1.25;;;17.70;62.80;16.70;101211.00;;;;5046783;28;20508;-68
2021/12/31 03:42:21;;;;;;;2.03;1.02;;;17.70;62.80;16.70;101202.00;;;;5044292;28;20574;-68
2021/12/31 03:45:09;;;;;;;3.15;1.33;;;17.70;62.80;16.70;101202.00;;;;5023424;28;20169;-68
2021/12/31 03:47:55;;;;;;;2.78;1.40;;;17.70;62.90;16.70;101203.00;;;;5032115;28;20041;-68
2021/12/31 03:50:41;;;;;;;2.75;1.15;;;17.70;62.80;16.70;101200.00;;;;5045929;28;20041;-68
2021/12/31 03:53:27;;;;;;;5.78;1.13;;;17.70;62.80;16.70;101201.00;;;;5046408;28;20037;-68
2021/12/31 03:56:13;;;;;;;4.40;1.27;;;17.70;62.80;16.70;101201.00;;;;5045149;28;20132;-68
2021/12/31 03:59:00;;;;;;;3.78;1.58;;;17.70;62.90;16.70;101194.00;;;;5043961;28;20049;-68
2021/12/31 04:01:46;;;;;;;3.85;1.33;;;17.70;62.90;16.70;101208.00;;;;5030520;28;20044;-68
2021/12/31 04:04:32;;;;;;;4.03;1.48;;;17.60;62.70;16.70;101199.00;;;;5049097;28;20049;-68
2021/12/31 04:07:19;;;;;;;3.95;1.60;;;17.60;62.70;16.70;101194.00;;;;5044150;28;20352;-68
2021/12/31 04:10:06;;;;;;;1.73;1.23;;;17.70;62.80;16.70;101201.00;;;;5045815;28;20056;-68
2021/12/31 04:12:52;;;;;;;3.03;1.02;;;17.70;62.80;16.70;101201.00;;;;5043476;28;20404;-68
2021/12/31 04:15:38;;;;;;;1.58;0.90;;;17.70;62.80;16.70;101195.00;;;;5042816;28;20041;-68
2021/12/31 04:18:26;;;;;;;1.55;0.80;;;17.70;62.80;16.70;101197.00;;;;5043898;28;20545;-68
2021/12/31 04:21:15;;;;;;;5.25;1.35;;;17.70;62.80;16.70;101189.00;;;;5022801;28;20051;-68
2021/12/31 04:24:14;;;;;;;3.15;1.20;;;17.70;62.80;16.70;101194.00;;;;5035510;28;20080;-68
2021/12/31 04:27:00;;;;;;;2.72;1.27;;;17.70;62.70;16.70;101191.00;;;;5043160;28;20159;-68
2021/12/31 04:29:50;;;;;;;2.47;1.08;;;17.70;62.70;16.70;101191.00;;;;5044797;28;20170;-68
2021/12/31 04:32:36;;;;;;;3.00;1.30;;;17.70;62.70;16.70;101195.00;;;;5030500;28;20076;-68
2021/12/31 04:35:23;;;;;;;3.15;1.08;;;17.70;62.60;16.70;101193.00;;;;5031842;28;20037;-68
2021/12/31 04:38:09;;;;;;;3.47;1.10;;;17.70;62.60;16.70;101194.00;;;;5048685;28;20045;-68
2021/12/31 04:40:55;;;;;;;3.22;1.30;;;17.70;62.50;16.70;101190.00;;;;5043461;28;20350;-68
2021/12/31 04:43:41;;;;;;;2.33;0.90;;;17.70;62.50;16.70;101192.00;;;;5041942;28;20040;-68
2021/12/31 04:46:27;;;;;;;3.25;1.00;;;17.60;62.40;16.70;101199.00;;;;5047308;28;20040;-68
2021/12/31 04:49:14;;;;;;;1.05;0.75;;;17.70;62.40;16.70;101195.00;;;;5042741;28;20041;-68
2021/12/31 04:52:00;;;;;;;1.85;0.95;;;17.70;62.40;16.70;101194.00;;;;5043118;28;20051;-68
2021/12/31 04:54:46;;;;;;;3.10;1.10;;;17.70;62.30;16.70;101202.00;;;;5044454;28;20033;-68
2021/12/31 04:57:32;;;;;;;3.63;0.80;;;17.80;62.30;16.70;101193.00;;;;5043390;28;20025;-68
2021/12/31 05:00:19;;;;;;;3.30;0.88;;;17.70;62.20;16.70;101188.00;;;;5025462;28;20390;-68
2021/12/31 05:03:10;;;;;;;1.47;0.90;;;17.80;62.20;16.70;101192.00;;;;5029133;28;20048;-68
2021/12/31 05:05:56;;;;;;;3.10;0.95;;;17.80;62.20;16.70;101203.00;;;;5046278;28;20071;-68
2021/12/31 05:08:42;;;;;;;2.25;1.20;;;17.80;62.90;16.70;101190.00;;;;5043757;28;20123;-68
2021/12/31 05:11:28;;;;;;;5.95;1.00;;;17.80;62.10;16.70;101179.00;;;;5006358;28;20518;-68
2021/12/31 05:14:15;;;;;;;1.73;0.90;;;17.80;62.00;16.70;101177.00;;;;5043898;28;20052;-68
2021/12/31 05:17:01;;;;;;;2.47;1.10;;;17.80;62.00;16.70;101179.00;;;;5042658;28;20494;-68
2021/12/31 05:19:48;;;;;;;2.92;1.00;;;17.80;61.90;16.70;101182.00;;;;5043211;28;20068;-68
2021/12/31 05:22:34;;;;;;;1.75;0.85;;;17.80;62.00;16.70;101185.00;;;;5017215;28;20051;-68
2021/12/31 05:25:22;;;;;;;3.67;1.30;;;17.80;62.00;16.70;101185.00;;;;5043972;28;20036;-68
2021/12/31 05:28:08;;;;;;;1.67;0.88;;;17.80;61.90;16.70;101188.00;;;;5022743;28;20045;-68
2021/12/31 05:30:54;;;;;;;1.58;0.60;;;17.80;61.80;16.70;101192.00;;;;5043510;28;20052;-68
2021/12/31 05:33:40;;;;;;;3.10;0.93;;;17.80;61.80;16.70;101185.00;;;;5044035;28;20469;-68
2021/12/31 05:36:26;;;;;;;1.55;0.80;;;17.80;61.80;16.70;101186.00;;;;5041552;28;20044;-68
2021/12/31 05:39:13;;;;;;;1.40;0.80;;;17.80;61.80;16.70;101188.00;;;;5031512;28;20041;-68
2021/12/31 05:41:59;;;;;;;1.67;0.90;;;17.80;61.80;16.80;101187.00;;;;5043386;28;20490;-68
2021/12/31 05:44:48;;;;;;;4.57;1.17;;;17.80;61.80;16.70;101187.00;;;;5041840;28;20040;-68
2021/12/31 05:47:34;;;;;;;5.80;1.20;;;17.80;61.70;16.70;101186.00;;;;5042968;28;20040;-68
2021/12/31 05:50:29;;;;;;;2.28;0.90;;;17.80;61.70;16.70;101174.00;;;;5026824;28;20501;-68
2021/12/31 05:53:15;;;;;;;4.32;1.00;;;17.80;61.70;16.70;101174.00;;;;5028652;28;20500;-68
2021/12/31 05:56:01;;;;;;;2.28;1.00;;;17.80;61.60;16.70;101188.00;;;;5041967;28;20127;-68
2021/12/31 05:58:47;;;;;;;1.85;0.90;;;17.80;61.60;16.70;101176.00;;;;5007206;28;20606;-68
2021/12/31 06:01:34;;;;;;;2.25;0.90;;;17.80;61.60;16.70;101177.00;;;;5010952;28;20096;-68
2021/12/31 06:04:20;;;;;;;2.25;0.77;;;17.80;61.60;16.70;101172.00;;;;5013990;28;20048;-68
2021/12/31 06:07:06;;;;;;;2.15;0.93;;;17.80;61.60;16.70;101164.00;;;;5009008;28;20127;-68
2021/12/31 06:09:52;;;;;;;1.27;0.85;;;17.80;61.60;16.70;101154.00;;;;5011383;28;20080;-68
2021/12/31 06:12:39;;;;;;;2.38;1.05;;;17.80;61.50;16.70;101148.00;;;;4996686;28;20045;-68
2021/12/31 06:15:26;;;;;;;2.78;1.00;;;17.80;61.50;16.70;101154.00;;;;4978037;28;20045;-68
2021/12/31 06:18:12;;;;;;;2.10;1.00;;;17.80;61.40;16.70;101150.00;;;;5009038;28;20034;-68
2021/12/31 06:20:58;;;;;;;2.90;1.35;;;17.80;61.40;16.70;101154.00;;;;4999118;28;20065;-68
2021/12/31 06:23:44;;;;;;;2.17;0.90;;;17.80;61.40;16.80;101145.00;;;;5008275;28;20067;-68
2021/12/31 06:26:31;;;;;;;2.53;0.88;;;17.80;61.40;16.80;101141.00;;;;5008488;28;20476;-68
2021/12/31 06:29:17;;;;;;;2.88;0.80;;;17.80;62.20;16.70;101146.00;;;;5011361;28;20072;-68
2021/12/31 06:32:04;;;;;;;3.03;1.00;;;17.80;61.40;16.70;101148.00;;;;4998260;28;20113;-68
2021/12/31 06:34:50;;;;;;;3.30;1.10;;;17.80;61.40;16.70;101148.00;;;;5007547;28;20097;-68
2021/12/31 06:37:37;;;;;;;1.83;1.02;;;17.80;61.40;16.80;101151.00;;;;5010812;28;20049;-68
2021/12/31 06:40:23;;;;;;;2.03;1.20;;;17.80;61.30;16.80;101148.00;;;;5010351;28;20049;-68
2021/12/31 06:43:09;;;;;;;1.88;0.80;;;17.80;61.30;16.80;101141.00;;;;5007642;28;20627;-68
2021/12/31 06:45:56;;;;;;;3.20;1.17;;;17.80;61.30;16.70;101148.00;;;;4979374;28;20041;-68
2021/12/31 06:48:42;;;;;;;2.25;1.05;;;17.80;61.30;16.80;101150.00;;;;5010716;28;20073;-68
2021/12/31 06:51:28;;;;;;;2.60;1.10;;;17.80;61.30;16.80;101151.00;;;;4985601;28;20049;-68
2021/12/31 06:54:14;;;;;;;3.20;1.20;;;17.80;61.30;16.70;101147.00;;;;5011219;28;20561;-68
2021/12/31 06:57:00;;;;;;;2.58;0.88;;;17.80;61.30;16.70;101145.00;;;;4994006;28;20043;-68
2021/12/31 06:59:46;;;;;;;2.78;1.10;;;17.80;61.30;16.80;101139.00;;;;5023979;28;20140;-68
2021/12/31 07:02:34;;;;;;;3.65;0.95;;;17.80;61.30;16.70;101132.00;;;;5023603;28;20056;-68
2021/12/31 07:05:20;;;;;;;3.70;0.75;;;17.80;61.30;16.70;101146.00;;;;5022901;28;20049;-68
2021/12/31 07:08:06;;;;;;;2.08;0.85;;;17.80;61.20;16.70;101134.00;;;;5029457;28;20041;-68
2021/12/31 07:10:52;;;;;;;2.28;1.08;;;17.80;61.20;16.70;101134.00;;;;5024642;28;20136;-68
2021/12/31 07:13:39;;;;;;;4.75;1.60;;;17.80;61.20;16.70;101126.00;;;;5013086;28;20046;-68
2021/12/31 07:16:25;;;;;;;1.88;1.30;;;17.80;61.10;16.70;101123.00;;;;5018863;28;20143;-68
2021/12/31 07:19:11;;;;;;;5.00;1.50;;;17.80;61.10;16.70;101133.00;;;;5017059;28;20059;-68
2021/12/31 07:21:57;;;;;;;1.58;1.23;;;17.80;61.10;16.70;101139.00;;;;5027357;28;20048;-68
2021/12/31 07:24:43;;;;;;;2.67;1.23;;;17.80;61.10;16.70;101141.00;;;;5027926;28;20131;-68
2021/12/31 07:27:32;;;;;;;4.90;1.58;;;17.80;61.10;16.80;101140.00;;;;5030325;28;20060;-68
2021/12/31 07:30:18;;;;;;;1.85;1.00;;;17.80;61.10;16.70;101145.00;;;;5025699;28;20130;-68
2021/12/31 07:33:04;;;;;;;3.25;1.17;;;17.80;61.10;16.70;101139.00;;;;5031105;28;20076;-68
2021/12/31 07:35:51;;;;;;;5.20;1.52;;;17.80;61.10;16.80;101126.00;;;;5029915;28;20037;-68
2021/12/31 07:38:40;;;;;;;2.22;0.95;;;17.80;61.00;16.80;101116.00;;;;4997541;28;20029;-68
2021/12/31 07:41:27;;;;;;;3.10;1.35;;;17.80;61.00;16.80;101127.00;;;;5028481;28;20276;-68
2021/12/31 07:44:13;;;;;;;1.92;1.48;;;17.80;61.10;16.80;101129.00;;;;5000857;28;20037;-68
2021/12/31 07:46:59;;;;;;;2.33;1.38;;;17.80;61.00;16.80;101131.00;;;;5003270;28;20048;-68
2021/12/31 07:49:45;;;;;;;3.47;1.50;;;17.80;61.00;16.70;101132.00;;;;5009942;28;20127;-68
2021/12/31 07:52:31;;;;;;;5.95;1.48;;;17.80;60.90;16.80;101137.00;;;;5018722;28;20077;-68
2021/12/31 07:55:17;;;;;;;1.85;1.15;;;17.70;60.90;16.80;101139.00;;;;5017842;28;20568;-68
2021/12/31 07:58:05;;;;;;;3.38;1.00;;;17.80;60.90;16.80;101147.00;;;;5000605;28;20124;-68
2021/12/31 08:00:51;;;;;;;3.25;1.17;;;17.80;60.90;16.80;101160.00;;;;5014009;28;20068;-68
2021/12/31 08:03:37;;;;;;;2.80;1.15;;;17.80;60.80;16.80;101156.00;;;;5011498;28;20440;-68
2021/12/31 08:06:23;;;;;;;1.63;0.90;;;17.80;60.90;16.80;101154.00;;;;5021268;28;20131;-68
2021/12/31 08:09:09;;;;;;;2.03;1.20;;;17.80;60.80;16.80;101160.00;;;;5019124;28;20049;-68
2021/12/31 08:11:56;;;;;;;3.85;1.05;;;17.80;60.90;16.80;101149.00;;;;5016623;28;20052;-68
2021/12/31 08:14:42;;;;;;;1.90;0.93;;;17.80;60.80;16.80;101153.00;;;;5016773;28;20037;-68
2021/12/31 08:17:28;;;;;;;3.78;1.00;;;17.80;60.80;16.80;101159.00;;;;5000725;28;20088;-68
2021/12/31 08:20:14;;;;;;;3.33;1.05;;;17.80;60.80;16.80;101146.00;;;;5018473;28;20045;-68
2021/12/31 08:23:09;;;;;;;1.50;0.80;;;17.80;60.70;16.80;101151.00;;;;5018407;28;20100;-68
2021/12/31 08:25:55;;;;;;;1.65;0.80;;;17.80;60.70;16.70;101160.00;;;;5015662;28;20129;-68
2021/12/31 08:28:41;;;;;;;3.08;1.10;;;17.80;60.60;16.80;101163.00;;;;5010576;28;20041;-68
2021/12/31 08:31:27;;;;;;;3.05;1.10;;;17.80;60.70;16.80;101173.00;;;;5020313;28;20394;-68
2021/12/31 08:34:13;;;;;;;1.33;0.80;;;17.80;60.70;16.80;101173.00;;;;5013875;28;20045;-68
2021/12/31 08:37:00;;;;;;;2.20;0.70;;;17.70;60.60;16.70;101170.00;;;;5011828;28;20057;-68
2021/12/31 08:39:46;;;;;;;1.58;1.02;;;17.70;60.60;16.80;101184.00;;;;5004559;28;20037;-68
2021/12/31 08:42:32;;;;;;;4.38;1.10;;;17.70;60.60;16.80;101187.00;;;;5012365;28;20123;-68
2021/12/31 08:45:19;;;;;;;2.33;0.80;;;17.80;60.60;16.80;101193.00;;;;5000539;28;20716;-68
2021/12/31 08:48:05;;;;;;;2.83;0.95;;;17.80;60.60;16.70;101188.00;;;;5004623;28;20045;-68
2021/12/31 08:50:51;;;;;;;4.68;1.00;;;17.70;60.50;16.80;101188.00;;;;5018421;28;20516;-68
2021/12/31 08:53:37;;;;;;;2.10;0.80;;;17.80;60.50;16.80;101184.00;;;;5016532;28;20124;-68
2021/12/31 08:56:23;;;;;;;3.17;0.77;;;17.70;60.50;16.80;101181.00;;;;5015699;28;20048;-70
2021/12/31 08:59:10;;;;;;;3.67;0.90;;;17.80;60.40;16.80;101190.00;;;;5015536;28;20850;-69
2021/12/31 09:01:56;;;;;;;5.05;1.05;;;17.80;60.40;16.80;101181.00;;;;4994643;28;20068;-70
2021/12/31 09:04:42;;;;;;;2.28;1.05;;;17.80;60.40;16.80;101180.00;;;;5003354;28;22053;-69
2021/12/31 09:07:29;;;;;;;1.02;0.93;;;17.80;60.40;16.80;101181.00;;;;4996519;28;20133;-69
2021/12/31 09:10:15;;;;;;;2.00;0.82;;;17.80;60.30;16.80;101183.00;;;;5011204;28;20074;-68
2021/12/31 09:13:02;;;;;;;3.15;0.98;;;17.70;60.30;16.80;101184.00;;;;5000554;28;20053;-71
2021/12/31 09:15:48;;;;;;;3.17;1.00;;;17.70;60.30;16.80;101175.00;;;;5002198;28;20085;-68
2021/12/31 09:18:34;;;;;;;3.45;1.00;;;17.80;60.30;16.80;101179.00;;;;5011937;28;20049;-68
2021/12/31 09:21:22;;;;;;;1.98;1.13;;;17.80;60.30;16.80;101173.00;;;;5011090;28;20294;-68
2021/12/31 09:24:08;;;;;;;1.05;0.60;;;17.70;60.30;16.80;101176.00;;;;4993405;28;20049;-69
2021/12/31 09:26:54;;;;;;;1.02;0.60;;;17.80;60.30;16.80;101181.00;;;;5000103;28;20235;-68
2021/12/31 09:29:40;;;;;;;1.63;0.75;;;17.80;60.30;16.80;101170.00;;;;5014975;28;20430;-69
2021/12/31 09:32:26;;;;;;;1.20;0.70;;;17.80;60.20;16.80;101171.00;;;;5014195;28;20045;-68
2021/12/31 09:35:12;;;;;;;4.68;0.95;;;17.80;60.30;16.80;101164.00;;;;5004286;28;20090;-68
2021/12/31 09:38:00;;;;;;;1.42;0.90;;;17.80;60.10;16.80;101185.00;;;;5017975;28;20051;-68
2021/12/31 09:40:47;;;;;;;1.58;0.98;;;17.80;60.20;16.80;101181.00;;;;5001704;28;20044;-68
2021/12/31 09:43:33;;;;;;;1.20;0.90;;;17.80;60.00;16.70;101190.00;;;;4996802;28;20149;-68
2021/12/31 09:46:19;;;;;;;2.38;0.75;;;17.80;60.00;16.80;101190.00;;;;5015966;28;20047;-68
2021/12/31 09:49:06;;;;;;;1.13;0.90;;;17.80;60.00;16.80;101180.00;;;;5001828;28;20138;-68
2021/12/31 09:51:52;;;;;;;2.35;0.90;;;17.80;59.90;16.80;101183.00;;;;5011924;28;20552;-68
2021/12/31 09:54:46;;;;;;;2.15;0.90;;;17.80;60.00;16.70;101185.00;;;;5007956;28;20500;-69
2021/12/31 09:57:32;;;;;;;1.95;0.90;;;17.80;60.00;16.70;101176.00;;;;5000772;28;20030;-69
2021/12/31 10:00:26;;;;;;;1.63;0.90;;;17.80;59.90;16.70;101172.00;;;;5007140;28;20048;-69
2021/12/31 10:03:25;;;;;;;1.92;0.98;;;17.70;59.90;16.70;101186.00;;;;5024280;28;20045;-69
2021/12/31 10:06:12;;;;;;;;;;;17.70;60.00;16.70;101168.00;;;;4994826;28;20497;-69
2021/12/31 10:09:01;;;;;;;1.35;0.77;;;17.80;60.20;16.70;101173.00;;;;5004437;28;19921;-69
2021/12/31 10:11:48;;;;;;;3.30;0.88;;;17.80;60.00;16.70;101181.00;;;;5013955;28;20566;-69
2021/12/31 10:14:39;;;;;;;4.22;1.10;;;17.80;59.90;16.70;101183.00;;;;5017218;28;20040;-69
2021/12/31 10:17:35;;;;;;;1.95;0.70;;;17.80;59.90;16.70;101184.00;;;;5001551;28;20038;-69
2021/12/31 10:20:21;;;;;;;1.67;1.15;;;17.80;59.80;16.70;101191.00;;;;5002636;28;20041;-69
2021/12/31 10:23:16;;;;;;;3.25;0.93;;;17.70;59.80;16.70;101193.00;;;;4983548;28;20060;-68
2021/12/31 10:26:10;;;;;;;2.03;0.98;;;17.70;59.90;16.70;101194.00;;;;4986865;28;20052;-70
2021/12/31 10:28:58;;;;;;;2.13;0.90;;;17.70;59.90;16.70;101201.00;;;;4986390;28;20053;-69
2021/12/31 10:31:47;;;;;;;1.58;0.90;;;17.70;59.90;16.70;101187.00;;;;5009659;28;20038;-70
2021/12/31 10:34:39;;;;;;;1.27;0.70;;;17.70;59.90;16.70;101189.00;;;;5006112;28;20163;-70
2021/12/31 10:37:26;;;;;;;1.85;0.90;;;17.70;59.90;16.70;101177.00;;;;5001305;28;20038;-70
2021/12/31 10:40:24;;;;;;;1.87;1.10;;;17.70;59.80;16.80;101180.00;;;;4981814;28;20059;-70
2021/12/31 10:43:22;;;;;;;3.13;1.10;;;17.70;59.80;16.70;101179.00;;;;5012462;28;20354;-70
2021/12/31 10:46:11;;;;;;;2.63;0.90;;;17.70;59.80;16.70;101188.00;;;;5013786;28;20187;-70
2021/12/31 10:49:06;;;;;;;2.17;0.95;;;17.70;59.80;16.70;101183.00;;;;5001206;28;20077;-70
2021/12/31 10:51:52;;;;;;;2.03;0.95;;;17.70;59.80;16.70;101187.00;;;;4998295;28;20132;-70
2021/12/31 10:54:47;;;;;;;2.38;1.25;;;17.70;59.80;16.70;101199.00;;;;4991566;28;20056;-70
2021/12/31 10:57:37;;;;;;;8.38;1.73;;;17.70;59.90;16.80;101210.00;;;;5018512;28;20029;-69
2021/12/31 11:00:29;;;;;;;9.07;1.60;;;17.70;59.90;16.80;101204.00;;;;5013180;28;20045;-70
2021/12/31 11:03:15;;;;;;;7.88;1.55;;;17.70;59.90;16.80;101190.00;;;;4992126;28;20080;-70
2021/12/31 11:06:03;;;;;;;6.93;1.50;;;17.80;59.90;16.80;101192.00;;;;4985005;28;20052;-70
2021/12/31 11:08:50;;;;;;;6.20;1.17;;;17.80;59.90;16.90;101188.00;;;;4989582;28;20069;-69
2021/12/31 11:11:37;;;;;;;9.82;1.27;;;17.80;59.90;16.90;101164.00;;;;4974422;28;20073;-69
2021/12/31 11:14:23;;;;;;;5.30;1.02;;;17.80;59.90;16.90;101164.00;;;;4986256;28;20141;-69
2021/12/31 11:17:09;;;;;;;4.05;1.02;;;17.80;59.80;16.90;101170.00;;;;4988147;28;20140;-70
2021/12/31 11:19:55;;;;;;;3.35;1.08;;;17.80;59.70;17.00;101165.00;;;;5016915;28;20053;-70
2021/12/31 11:22:41;;;;;;;2.55;0.90;;;18.10;59.70;17.00;101174.00;;;;4990805;28;20057;-70
2021/12/31 11:25:28;;;;;;;1.92;0.90;;;17.90;59.40;17.00;101172.00;;;;4986494;28;20049;-69
2021/12/31 11:28:34;;;;;;;3.85;1.10;;;17.90;59.40;17.00;101162.00;;;;4998204;28;20045;-69
2021/12/31 11:31:25;;;;;;;3.85;1.30;;;17.90;59.50;17.00;101153.00;;;;5003588;28;20064;-69
2021/12/31 11:34:12;;;;;;;4.32;0.95;;;17.90;59.30;17.00;101135.00;;;;5008682;28;20033;-70
2021/12/31 11:36:59;;;;;;;2.85;1.27;;;17.90;59.30;17.00;101136.00;;;;4990269;28;20045;-71
2021/12/31 11:39:46;;;;;;;2.90;1.10;;;18.00;59.30;17.00;101125.00;;;;5014110;28;20668;-69
2021/12/31 11:42:32;;;;;;;1.57;0.90;;;18.00;59.10;17.00;101115.00;;;;4992800;28;20049;-70
2021/12/31 11:45:18;;;;;;;2.00;0.90;;;18.00;59.10;17.00;101106.00;;;;4996488;28;20371;-70
2021/12/31 11:48:48;;;;;;;4.30;1.00;;;18.00;59.20;17.00;101102.00;;;;5005882;28;20065;-69
2021/12/31 11:51:39;;;;;;;1.75;1.00;;;18.00;59.10;16.90;101103.00;;;;5009981;28;20519;-69
2021/12/31 11:54:25;;;;;;;2.40;1.05;;;18.00;59.10;16.90;101103.00;;;;4980907;28;20068;-70
2021/12/31 11:57:17;;;;;;;1.35;0.90;;;18.00;59.00;16.90;101095.00;;;;4999643;28;20037;-70
2021/12/31 12:00:04;;;;;;;3.00;1.20;;;18.00;59.00;16.90;101094.00;;;;5004575;28;20151;-70
2021/12/31 12:02:50;;;;;;;1.35;1.00;;;18.00;59.20;16.90;101093.00;;;;5012862;28;20045;-70
2021/12/31 12:05:42;;;;;;;6.35;0.88;;;18.00;59.10;16.90;101095.00;;;;4986811;28;20045;-70
2021/12/31 12:08:28;;;;;;;1.65;0.90;;;17.90;59.10;16.90;101072.00;;;;5020423;28;20048;-76
2021/12/31 12:12:00;;;;;;;1.55;0.80;;;18.00;59.10;16.90;101076.00;;;;5020106;28;20416;-71
2021/12/31 12:14:51;;;;;;;3.42;1.45;;;17.90;59.00;16.90;101077.00;;;;5021461;28;20354;-71
2021/12/31 12:17:39;;;;;;;1.55;1.10;;;17.90;59.00;16.90;101077.00;;;;4998510;28;20037;-77
2021/12/31 12:20:36;;;;;;;3.33;0.90;;;17.90;58.90;16.90;101073.00;;;;5011723;28;20041;-71